sensor_id;sensor_type;location;lat;lon;timestamp;pressure;altitude;pressure_sealevel;temperature;humidity
35331;BME280;21441;52.190;20.910;2022-09-09T00:00:28;99921.56;;;12.36;100.00
35331;BME280;21441;52.190;20.910;2022-09-09T00:03:22;99929.81;;;12.20;100.00
35331;BME280;21441;52.190;20.910;2022-09-09T00:05:57;99910.53;;;12.03;100.00
35331;BME280;21441;52.190;20.910;2022-09-09T00:08:37;99915.97;;;11.95;100.00
35331;BME280;21441;52.190;20.910;2022-09-09T00:11:09;99920.94;;;11.98;100.00
35331;BME280;21441;52.190;20.910;2022-09-09T00:13:41;99909.88;;;11.86;100.00
35331;BME280;21441;52.190;20.910;2022-09-09T00:16:15;99922.69;;;11.76;100.00
35331;BME280;21441;52.190;20.910;2022-09-09T00:18:50;99917.34;;;11.76;100.00
35331;BME280;21441;52.190;20.910;2022-09-09T00:21:23;99920.13;;;11.68;100.00
35331;BME280;21441;52.190;20.910;2022-09-09T00:23:54;99911.19;;;11.75;100.00
35331;BME280;21441;52.190;20.910;2022-09-09T00:26:30;99907.63;;;11.68;100.00
35331;BME280;21441;52.190;20.910;2022-09-09T00:29:04;99913.41;;;11.72;100.00
35331;BME280;21441;52.190;20.910;2022-09-09T00:31:32;99919.84;;;11.63;100.00
35331;BME280;21441;52.190;20.910;2022-09-09T00:34:04;99922.63;;;11.69;100.00
35331;BME280;21441;52.190;20.910;2022-09-09T00:36:32;99921.53;;;11.64;100.00
35331;BME280;21441;52.190;20.910;2022-09-09T00:39:01;99917.47;;;11.53;100.00
35331;BME280;21441;52.190;20.910;2022-09-09T00:41:39;99929.09;;;11.60;100.00
35331;BME280;21441;52.190;20.910;2022-09-09T00:44:20;99925.13;;;11.56;100.00
35331;BME280;21441;52.190;20.910;2022-09-09T00:46:59;99921.88;;;11.46;100.00
35331;BME280;21441;52.190;20.910;2022-09-09T00:49:38;99921.53;;;11.49;100.00
35331;BME280;21441;52.190;20.910;2022-09-09T00:52:19;99918.03;;;11.48;100.00
35331;BME280;21441;52.190;20.910;2022-09-09T00:54:54;99926.22;;;11.47;100.00
35331;BME280;21441;52.190;20.910;2022-09-09T00:57:28;99937.47;;;11.42;100.00
35331;BME280;21441;52.190;20.910;2022-09-09T00:59:59;99923.56;;;11.47;100.00
35331;BME280;21441;52.190;20.910;2022-09-09T01:02:34;99927.69;;;11.49;100.00
35331;BME280;21441;52.190;20.910;2022-09-09T01:05:10;99917.94;;;11.56;100.00
35331;BME280;21441;52.190;20.910;2022-09-09T01:07:40;99910.94;;;11.55;100.00
35331;BME280;21441;52.190;20.910;2022-09-09T01:10:21;99903.66;;;11.49;100.00
35331;BME280;21441;52.190;20.910;2022-09-09T01:12:55;99914.63;;;11.40;100.00
35331;BME280;21441;52.190;20.910;2022-09-09T01:15:29;99909.72;;;11.28;100.00
35331;BME280;21441;52.190;20.910;2022-09-09T01:18:00;99912.78;;;11.40;100.00
35331;BME280;21441;52.190;20.910;2022-09-09T01:20:31;99898.69;;;11.46;100.00
35331;BME280;21441;52.190;20.910;2022-09-09T01:23:15;99901.94;;;11.42;100.00
35331;BME280;21441;52.190;20.910;2022-09-09T01:26:08;99905.22;;;11.44;100.00
35331;BME280;21441;52.190;20.910;2022-09-09T01:28:37;99892.63;;;11.38;100.00
35331;BME280;21441;52.190;20.910;2022-09-09T01:31:06;99899.13;;;11.50;100.00
35331;BME280;21441;52.190;20.910;2022-09-09T01:33:35;99899.78;;;11.52;100.00
35331;BME280;21441;52.190;20.910;2022-09-09T01:36:06;99901.63;;;11.51;100.00
35331;BME280;21441;52.190;20.910;2022-09-09T01:38:35;99897.84;;;11.46;100.00
35331;BME280;21441;52.190;20.910;2022-09-09T01:41:03;99896.13;;;11.53;100.00
35331;BME280;21441;52.190;20.910;2022-09-09T01:43:31;99903.75;;;11.56;100.00
35331;BME280;21441;52.190;20.910;2022-09-09T01:46:00;99908.69;;;11.59;100.00
35331;BME280;21441;52.190;20.910;2022-09-09T01:48:28;99904.56;;;11.56;100.00
35331;BME280;21441;52.190;20.910;2022-09-09T01:50:56;99906.06;;;11.44;100.00
35331;BME280;21441;52.190;20.910;2022-09-09T01:53:23;99905.78;;;11.54;100.00
35331;BME280;21441;52.190;20.910;2022-09-09T01:56:02;99904.84;;;11.62;100.00
35331;BME280;21441;52.190;20.910;2022-09-09T01:58:38;99901.97;;;11.63;100.00
35331;BME280;21441;52.190;20.910;2022-09-09T02:01:14;99902.38;;;11.60;100.00
35331;BME280;21441;52.190;20.910;2022-09-09T02:03:44;99904.00;;;11.61;100.00
35331;BME280;21441;52.190;20.910;2022-09-09T02:06:25;99902.09;;;11.55;100.00
35331;BME280;21441;52.190;20.910;2022-09-09T02:08:55;99893.69;;;11.58;100.00
35331;BME280;21441;52.190;20.910;2022-09-09T02:11:23;99894.81;;;11.64;100.00
35331;BME280;21441;52.190;20.910;2022-09-09T02:13:55;99889.19;;;11.59;100.00
35331;BME280;21441;52.190;20.910;2022-09-09T02:16:26;99887.47;;;11.51;100.00
35331;BME280;21441;52.190;20.910;2022-09-09T02:18:57;99884.88;;;11.57;100.00
35331;BME280;21441;52.190;20.910;2022-09-09T02:21:28;99884.03;;;11.57;100.00
35331;BME280;21441;52.190;20.910;2022-09-09T02:23:55;99880.72;;;11.55;100.00
35331;BME280;21441;52.190;20.910;2022-09-09T02:26:23;99878.13;;;11.62;100.00
35331;BME280;21441;52.190;20.910;2022-09-09T02:28:55;99891.50;;;11.62;100.00
35331;BME280;21441;52.190;20.910;2022-09-09T02:31:24;99885.22;;;11.69;100.00
35331;BME280;21441;52.190;20.910;2022-09-09T02:33:54;99885.50;;;11.60;100.00
35331;BME280;21441;52.190;20.910;2022-09-09T02:36:24;99896.38;;;11.73;100.00
35331;BME280;21441;52.190;20.910;2022-09-09T02:38:52;99904.38;;;11.58;100.00
35331;BME280;21441;52.190;20.910;2022-09-09T02:41:20;99900.59;;;11.67;100.00
35331;BME280;21441;52.190;20.910;2022-09-09T02:43:50;99902.44;;;11.67;100.00
35331;BME280;21441;52.190;20.910;2022-09-09T02:46:31;99900.41;;;11.69;100.00
35331;BME280;21441;52.190;20.910;2022-09-09T02:49:00;99896.94;;;11.68;100.00
35331;BME280;21441;52.190;20.910;2022-09-09T02:51:35;99900.97;;;11.64;100.00
35331;BME280;21441;52.190;20.910;2022-09-09T02:54:10;99902.44;;;11.67;100.00
35331;BME280;21441;52.190;20.910;2022-09-09T02:56:42;99893.31;;;11.61;100.00
35331;BME280;21441;52.190;20.910;2022-09-09T02:59:11;99890.22;;;11.57;100.00
35331;BME280;21441;52.190;20.910;2022-09-09T03:01:40;99890.66;;;11.61;100.00
35331;BME280;21441;52.190;20.910;2022-09-09T03:04:06;99899.59;;;11.68;100.00
35331;BME280;21441;52.190;20.910;2022-09-09T03:06:33;99894.91;;;11.55;100.00
35331;BME280;21441;52.190;20.910;2022-09-09T03:09:01;99896.75;;;11.55;100.00
35331;BME280;21441;52.190;20.910;2022-09-09T03:11:28;99888.09;;;11.53;100.00
35331;BME280;21441;52.190;20.910;2022-09-09T03:13:55;99897.19;;;11.59;100.00
35331;BME280;21441;52.190;20.910;2022-09-09T03:16:22;99884.13;;;11.64;100.00
35331;BME280;21441;52.190;20.910;2022-09-09T03:18:51;99892.22;;;11.70;100.00
35331;BME280;21441;52.190;20.910;2022-09-09T03:21:18;99887.03;;;11.84;100.00
35331;BME280;21441;52.190;20.910;2022-09-09T03:23:44;99890.19;;;11.72;100.00
35331;BME280;21441;52.190;20.910;2022-09-09T03:26:12;99885.59;;;11.66;100.00
35331;BME280;21441;52.190;20.910;2022-09-09T03:28:40;99875.91;;;11.50;100.00
35331;BME280;21441;52.190;20.910;2022-09-09T03:31:07;99885.13;;;11.63;100.00
35331;BME280;21441;52.190;20.910;2022-09-09T03:33:35;99886.44;;;11.52;100.00
35331;BME280;21441;52.190;20.910;2022-09-09T03:36:04;99889.56;;;11.70;100.00
35331;BME280;21441;52.190;20.910;2022-09-09T03:38:32;99882.78;;;11.74;100.00
35331;BME280;21441;52.190;20.910;2022-09-09T03:41:00;99884.94;;;11.64;100.00
35331;BME280;21441;52.190;20.910;2022-09-09T03:43:28;99892.75;;;11.66;100.00
35331;BME280;21441;52.190;20.910;2022-09-09T03:45:55;99893.69;;;11.73;100.00
35331;BME280;21441;52.190;20.910;2022-09-09T03:48:23;99898.28;;;11.79;100.00
35331;BME280;21441;52.190;20.910;2022-09-09T03:50:52;99895.06;;;11.84;100.00
35331;BME280;21441;52.190;20.910;2022-09-09T03:53:23;99902.88;;;11.85;100.00
35331;BME280;21441;52.190;20.910;2022-09-09T03:55:53;99894.59;;;11.80;100.00
35331;BME280;21441;52.190;20.910;2022-09-09T03:58:21;99900.03;;;11.72;100.00
35331;BME280;21441;52.190;20.910;2022-09-09T04:00:53;99895.41;;;11.81;100.00
35331;BME280;21441;52.190;20.910;2022-09-09T04:03:20;99897.53;;;11.85;100.00
35331;BME280;21441;52.190;20.910;2022-09-09T04:05:48;99895.22;;;11.82;100.00
35331;BME280;21441;52.190;20.910;2022-09-09T04:08:15;99893.03;;;11.86;100.00
35331;BME280;21441;52.190;20.910;2022-09-09T04:10:44;99893.78;;;11.80;100.00
35331;BME280;21441;52.190;20.910;2022-09-09T04:13:11;99894.41;;;11.82;100.00
35331;BME280;21441;52.190;20.910;2022-09-09T04:15:40;99886.97;;;11.77;100.00
35331;BME280;21441;52.190;20.910;2022-09-09T04:18:08;99890.28;;;11.79;100.00
35331;BME280;21441;52.190;20.910;2022-09-09T04:20:35;99897.09;;;11.82;100.00
35331;BME280;21441;52.190;20.910;2022-09-09T04:23:02;99891.28;;;11.78;100.00
35331;BME280;21441;52.190;20.910;2022-09-09T04:25:28;99891.63;;;11.90;100.00
35331;BME280;21441;52.190;20.910;2022-09-09T04:27:57;99891.47;;;11.91;100.00
35331;BME280;21441;52.190;20.910;2022-09-09T04:30:24;99896.53;;;11.86;100.00
35331;BME280;21441;52.190;20.910;2022-09-09T04:32:52;99891.84;;;11.88;100.00
35331;BME280;21441;52.190;20.910;2022-09-09T04:35:19;99890.47;;;11.92;100.00
35331;BME280;21441;52.190;20.910;2022-09-09T04:37:46;99895.09;;;12.05;100.00
35331;BME280;21441;52.190;20.910;2022-09-09T04:40:14;99898.97;;;12.03;100.00
35331;BME280;21441;52.190;20.910;2022-09-09T04:42:41;99896.69;;;12.00;100.00
35331;BME280;21441;52.190;20.910;2022-09-09T04:45:10;99898.31;;;12.15;100.00
35331;BME280;21441;52.190;20.910;2022-09-09T04:47:38;99883.94;;;12.16;100.00
35331;BME280;21441;52.190;20.910;2022-09-09T04:50:07;99896.38;;;12.09;100.00
35331;BME280;21441;52.190;20.910;2022-09-09T04:52:34;99907.34;;;12.14;100.00
35331;BME280;21441;52.190;20.910;2022-09-09T04:55:03;99910.09;;;12.21;100.00
35331;BME280;21441;52.190;20.910;2022-09-09T04:57:30;99911.44;;;12.10;100.00
35331;BME280;21441;52.190;20.910;2022-09-09T04:59:58;99907.78;;;12.18;100.00
35331;BME280;21441;52.190;20.910;2022-09-09T05:02:26;99902.91;;;12.22;100.00
35331;BME280;21441;52.190;20.910;2022-09-09T05:04:54;99903.72;;;12.22;100.00
35331;BME280;21441;52.190;20.910;2022-09-09T05:07:21;99913.41;;;12.23;100.00
35331;BME280;21441;52.190;20.910;2022-09-09T05:09:48;99905.75;;;12.20;100.00
35331;BME280;21441;52.190;20.910;2022-09-09T05:12:15;99921.22;;;12.25;100.00
35331;BME280;21441;52.190;20.910;2022-09-09T05:14:43;99914.47;;;12.29;100.00
35331;BME280;21441;52.190;20.910;2022-09-09T05:17:10;99910.03;;;12.36;100.00
35331;BME280;21441;52.190;20.910;2022-09-09T05:19:40;99915.38;;;12.36;100.00
35331;BME280;21441;52.190;20.910;2022-09-09T05:22:07;99915.53;;;12.49;100.00
35331;BME280;21441;52.190;20.910;2022-09-09T05:24:34;99916.06;;;12.45;100.00
35331;BME280;21441;52.190;20.910;2022-09-09T05:27:02;99909.31;;;12.49;100.00
35331;BME280;21441;52.190;20.910;2022-09-09T05:29:31;99919.84;;;12.50;100.00
35331;BME280;21441;52.190;20.910;2022-09-09T05:31:58;99909.53;;;12.47;100.00
35331;BME280;21441;52.190;20.910;2022-09-09T05:34:25;99917.09;;;12.44;100.00
35331;BME280;21441;52.190;20.910;2022-09-09T05:36:53;99916.59;;;12.55;100.00
35331;BME280;21441;52.190;20.910;2022-09-09T05:39:20;99912.97;;;12.63;100.00
35331;BME280;21441;52.190;20.910;2022-09-09T05:41:47;99914.81;;;12.62;100.00
35331;BME280;21441;52.190;20.910;2022-09-09T05:44:14;99910.31;;;12.63;100.00
35331;BME280;21441;52.190;20.910;2022-09-09T05:46:41;99910.38;;;12.48;100.00
35331;BME280;21441;52.190;20.910;2022-09-09T05:49:08;99909.72;;;12.46;100.00
35331;BME280;21441;52.190;20.910;2022-09-09T05:51:35;99910.25;;;12.56;100.00
35331;BME280;21441;52.190;20.910;2022-09-09T05:54:04;99910.84;;;12.58;100.00
35331;BME280;21441;52.190;20.910;2022-09-09T05:56:31;99910.66;;;12.59;100.00
35331;BME280;21441;52.190;20.910;2022-09-09T05:58:58;99915.19;;;12.59;100.00
35331;BME280;21441;52.190;20.910;2022-09-09T06:01:27;99913.41;;;12.66;100.00
35331;BME280;21441;52.190;20.910;2022-09-09T06:03:55;99925.06;;;12.80;100.00
35331;BME280;21441;52.190;20.910;2022-09-09T06:06:23;99923.25;;;12.87;100.00
35331;BME280;21441;52.190;20.910;2022-09-09T06:08:52;99928.75;;;12.79;100.00
35331;BME280;21441;52.190;20.910;2022-09-09T06:11:22;99926.59;;;12.68;100.00
35331;BME280;21441;52.190;20.910;2022-09-09T06:13:50;99927.06;;;12.71;100.00
35331;BME280;21441;52.190;20.910;2022-09-09T06:16:20;99935.25;;;12.91;100.00
35331;BME280;21441;52.190;20.910;2022-09-09T06:18:49;99941.69;;;12.75;100.00
35331;BME280;21441;52.190;20.910;2022-09-09T06:21:17;99938.88;;;12.62;100.00
35331;BME280;21441;52.190;20.910;2022-09-09T06:23:45;99941.59;;;12.90;100.00
35331;BME280;21441;52.190;20.910;2022-09-09T06:26:14;99945.84;;;12.78;100.00
35331;BME280;21441;52.190;20.910;2022-09-09T06:28:44;99942.53;;;12.76;100.00
35331;BME280;21441;52.190;20.910;2022-09-09T06:31:12;99942.25;;;12.71;100.00
35331;BME280;21441;52.190;20.910;2022-09-09T06:33:41;99939.41;;;12.72;100.00
35331;BME280;21441;52.190;20.910;2022-09-09T06:36:11;99945.63;;;12.79;100.00
35331;BME280;21441;52.190;20.910;2022-09-09T06:38:38;99935.19;;;12.85;100.00
35331;BME280;21441;52.190;20.910;2022-09-09T06:41:05;99937.06;;;12.91;100.00
35331;BME280;21441;52.190;20.910;2022-09-09T06:43:32;99948.53;;;12.78;100.00
35331;BME280;21441;52.190;20.910;2022-09-09T06:46:03;99948.31;;;12.79;100.00
35331;BME280;21441;52.190;20.910;2022-09-09T06:48:31;99941.44;;;12.70;100.00
35331;BME280;21441;52.190;20.910;2022-09-09T06:51:03;99950.22;;;12.86;100.00
35331;BME280;21441;52.190;20.910;2022-09-09T06:53:30;99950.47;;;12.91;100.00
35331;BME280;21441;52.190;20.910;2022-09-09T06:55:59;99946.09;;;12.83;100.00
35331;BME280;21441;52.190;20.910;2022-09-09T06:58:26;99953.94;;;12.85;100.00
35331;BME280;21441;52.190;20.910;2022-09-09T07:01:03;99957.34;;;13.00;100.00
35331;BME280;21441;52.190;20.910;2022-09-09T07:03:30;99948.91;;;13.03;100.00
35331;BME280;21441;52.190;20.910;2022-09-09T07:05:57;99949.06;;;12.95;100.00
35331;BME280;21441;52.190;20.910;2022-09-09T07:08:24;99958.69;;;13.11;100.00
35331;BME280;21441;52.190;20.910;2022-09-09T07:10:52;99953.34;;;12.89;100.00
35331;BME280;21441;52.190;20.910;2022-09-09T07:13:20;99960.91;;;13.07;100.00
35331;BME280;21441;52.190;20.910;2022-09-09T07:15:51;99967.22;;;12.99;100.00
35331;BME280;21441;52.190;20.910;2022-09-09T07:18:19;99971.97;;;13.04;100.00
35331;BME280;21441;52.190;20.910;2022-09-09T07:20:53;99965.81;;;13.04;100.00
35331;BME280;21441;52.190;20.910;2022-09-09T07:23:20;99973.31;;;13.15;100.00
35331;BME280;21441;52.190;20.910;2022-09-09T07:25:47;99969.22;;;13.19;100.00
35331;BME280;21441;52.190;20.910;2022-09-09T07:28:14;99961.81;;;13.21;100.00
35331;BME280;21441;52.190;20.910;2022-09-09T07:30:41;99969.47;;;13.24;100.00
35331;BME280;21441;52.190;20.910;2022-09-09T07:33:08;99970.13;;;13.26;100.00
35331;BME280;21441;52.190;20.910;2022-09-09T07:35:36;99970.31;;;13.25;100.00
35331;BME280;21441;52.190;20.910;2022-09-09T07:38:04;99964.63;;;13.34;100.00
35331;BME280;21441;52.190;20.910;2022-09-09T07:40:32;99971.78;;;13.55;100.00
35331;BME280;21441;52.190;20.910;2022-09-09T07:42:59;99973.91;;;13.67;100.00
35331;BME280;21441;52.190;20.910;2022-09-09T07:45:27;99970.28;;;13.46;100.00
35331;BME280;21441;52.190;20.910;2022-09-09T07:47:54;99973.38;;;13.50;100.00
35331;BME280;21441;52.190;20.910;2022-09-09T07:50:22;99983.03;;;13.44;100.00
35331;BME280;21441;52.190;20.910;2022-09-09T07:52:51;99982.31;;;13.57;100.00
35331;BME280;21441;52.190;20.910;2022-09-09T07:55:19;99996.59;;;13.36;100.00
35331;BME280;21441;52.190;20.910;2022-09-09T07:57:46;99994.34;;;13.39;100.00
35331;BME280;21441;52.190;20.910;2022-09-09T08:00:14;99993.38;;;13.47;100.00
35331;BME280;21441;52.190;20.910;2022-09-09T08:02:41;100007.28;;;13.64;100.00
35331;BME280;21441;52.190;20.910;2022-09-09T08:05:08;100011.97;;;13.55;100.00
35331;BME280;21441;52.190;20.910;2022-09-09T08:07:35;100014.47;;;13.29;100.00
35331;BME280;21441;52.190;20.910;2022-09-09T08:10:03;100020.50;;;13.16;100.00
35331;BME280;21441;52.190;20.910;2022-09-09T08:12:31;100013.06;;;13.11;100.00
35331;BME280;21441;52.190;20.910;2022-09-09T08:14:58;100013.53;;;13.21;100.00
35331;BME280;21441;52.190;20.910;2022-09-09T08:17:25;100017.84;;;13.37;100.00
35331;BME280;21441;52.190;20.910;2022-09-09T08:19:52;100019.34;;;13.25;100.00
35331;BME280;21441;52.190;20.910;2022-09-09T08:22:19;100020.81;;;13.28;100.00
35331;BME280;21441;52.190;20.910;2022-09-09T08:24:47;100021.09;;;13.33;100.00
35331;BME280;21441;52.190;20.910;2022-09-09T08:27:15;100024.47;;;13.41;100.00
35331;BME280;21441;52.190;20.910;2022-09-09T08:29:42;100021.97;;;13.40;100.00
35331;BME280;21441;52.190;20.910;2022-09-09T08:32:10;100020.94;;;13.41;100.00
35331;BME280;21441;52.190;20.910;2022-09-09T08:34:37;100020.44;;;13.59;100.00
35331;BME280;21441;52.190;20.910;2022-09-09T08:37:04;100016.69;;;13.53;100.00
35331;BME280;21441;52.190;20.910;2022-09-09T08:39:30;100029.59;;;13.43;100.00
35331;BME280;21441;52.190;20.910;2022-09-09T08:42:29;100024.59;;;13.33;100.00
35331;BME280;21441;52.190;20.910;2022-09-09T08:45:16;100028.66;;;13.51;100.00
35331;BME280;21441;52.190;20.910;2022-09-09T08:48:08;100030.56;;;13.57;100.00
35331;BME280;21441;52.190;20.910;2022-09-09T08:50:39;100037.78;;;13.63;100.00
35331;BME280;21441;52.190;20.910;2022-09-09T08:53:11;100027.78;;;13.78;100.00
35331;BME280;21441;52.190;20.910;2022-09-09T08:55:45;100032.41;;;13.63;100.00
35331;BME280;21441;52.190;20.910;2022-09-09T08:58:17;100035.56;;;13.67;100.00
35331;BME280;21441;52.190;20.910;2022-09-09T09:03:41;100027.00;;;13.85;100.00
35331;BME280;21441;52.190;20.910;2022-09-09T09:06:21;100030.47;;;13.78;100.00
35331;BME280;21441;52.190;20.910;2022-09-09T09:08:56;100027.44;;;13.88;100.00
35331;BME280;21441;52.190;20.910;2022-09-09T09:11:26;100031.41;;;13.99;100.00
35331;BME280;21441;52.190;20.910;2022-09-09T09:13:58;100033.13;;;14.13;100.00
35331;BME280;21441;52.190;20.910;2022-09-09T09:16:32;100044.47;;;14.15;100.00
35331;BME280;21441;52.190;20.910;2022-09-09T09:18:59;100041.88;;;13.94;100.00
35331;BME280;21441;52.190;20.910;2022-09-09T09:21:34;100058.13;;;14.20;100.00
35331;BME280;21441;52.190;20.910;2022-09-09T09:24:06;100058.09;;;14.14;100.00
35331;BME280;21441;52.190;20.910;2022-09-09T09:26:36;100055.66;;;14.19;100.00
35331;BME280;21441;52.190;20.910;2022-09-09T09:29:10;100043.50;;;14.23;100.00
35331;BME280;21441;52.190;20.910;2022-09-09T09:31:38;100052.75;;;14.20;100.00
35331;BME280;21441;52.190;20.910;2022-09-09T09:34:07;100052.81;;;14.27;100.00
35331;BME280;21441;52.190;20.910;2022-09-09T09:36:40;100056.22;;;14.08;100.00
35331;BME280;21441;52.190;20.910;2022-09-09T09:39:08;100049.66;;;14.17;100.00
35331;BME280;21441;52.190;20.910;2022-09-09T09:41:38;100052.53;;;14.15;100.00
35331;BME280;21441;52.190;20.910;2022-09-09T09:44:22;100045.72;;;14.13;100.00
35331;BME280;21441;52.190;20.910;2022-09-09T09:46:50;100057.16;;;14.35;100.00
35331;BME280;21441;52.190;20.910;2022-09-09T09:49:17;100055.09;;;14.37;100.00
35331;BME280;21441;52.190;20.910;2022-09-09T09:51:44;100050.94;;;14.28;100.00
35331;BME280;21441;52.190;20.910;2022-09-09T09:54:18;100046.59;;;14.27;100.00
35331;BME280;21441;52.190;20.910;2022-09-09T09:56:48;100043.16;;;14.46;100.00
35331;BME280;21441;52.190;20.910;2022-09-09T09:59:33;100049.53;;;14.32;100.00
35331;BME280;21441;52.190;20.910;2022-09-09T10:02:19;100049.13;;;14.41;100.00
35331;BME280;21441;52.190;20.910;2022-09-09T10:04:47;100059.47;;;14.44;100.00
35331;BME280;21441;52.190;20.910;2022-09-09T10:07:18;100061.63;;;14.56;100.00
35331;BME280;21441;52.190;20.910;2022-09-09T10:09:47;100060.09;;;14.53;100.00
35331;BME280;21441;52.190;20.910;2022-09-09T10:12:28;100063.72;;;14.67;100.00
35331;BME280;21441;52.190;20.910;2022-09-09T10:15:02;100069.50;;;14.71;100.00
35331;BME280;21441;52.190;20.910;2022-09-09T10:17:38;100064.13;;;14.71;100.00
35331;BME280;21441;52.190;20.910;2022-09-09T10:20:23;100067.03;;;14.76;100.00
35331;BME280;21441;52.190;20.910;2022-09-09T10:23:06;100067.22;;;14.68;100.00
35331;BME280;21441;52.190;20.910;2022-09-09T10:25:45;100076.94;;;14.75;100.00
35331;BME280;21441;52.190;20.910;2022-09-09T10:28:34;100081.03;;;14.58;100.00
35331;BME280;21441;52.190;20.910;2022-09-09T10:31:16;100081.75;;;14.38;100.00
35331;BME280;21441;52.190;20.910;2022-09-09T10:33:50;100093.16;;;14.54;100.00
35331;BME280;21441;52.190;20.910;2022-09-09T10:36:20;100094.25;;;14.59;100.00
35331;BME280;21441;52.190;20.910;2022-09-09T10:38:52;100102.97;;;14.75;100.00
35331;BME280;21441;52.190;20.910;2022-09-09T10:41:39;100113.25;;;14.58;100.00
35331;BME280;21441;52.190;20.910;2022-09-09T10:44:22;100111.63;;;14.70;100.00
35331;BME280;21441;52.190;20.910;2022-09-09T10:47:13;100112.28;;;14.79;100.00
35331;BME280;21441;52.190;20.910;2022-09-09T10:50:03;100115.38;;;14.76;100.00
35331;BME280;21441;52.190;20.910;2022-09-09T10:52:36;100111.97;;;14.54;100.00
35331;BME280;21441;52.190;20.910;2022-09-09T10:55:10;100113.78;;;14.53;100.00
35331;BME280;21441;52.190;20.910;2022-09-09T10:57:42;100121.44;;;14.50;100.00
35331;BME280;21441;52.190;20.910;2022-09-09T11:00:16;100118.53;;;14.51;100.00
35331;BME280;21441;52.190;20.910;2022-09-09T11:02:48;100124.22;;;14.70;100.00
35331;BME280;21441;52.190;20.910;2022-09-09T11:05:19;100123.47;;;14.82;100.00
35331;BME280;21441;52.190;20.910;2022-09-09T11:07:49;100131.28;;;14.84;100.00
35331;BME280;21441;52.190;20.910;2022-09-09T11:10:23;100127.72;;;14.63;100.00
35331;BME280;21441;52.190;20.910;2022-09-09T11:12:53;100129.56;;;14.63;100.00
35331;BME280;21441;52.190;20.910;2022-09-09T11:15:25;100126.75;;;14.78;100.00
35331;BME280;21441;52.190;20.910;2022-09-09T11:17:59;100132.97;;;14.85;100.00
35331;BME280;21441;52.190;20.910;2022-09-09T11:20:28;100131.50;;;14.76;100.00
35331;BME280;21441;52.190;20.910;2022-09-09T11:22:59;100132.97;;;14.85;100.00
35331;BME280;21441;52.190;20.910;2022-09-09T11:25:32;100128.47;;;15.05;100.00
35331;BME280;21441;52.190;20.910;2022-09-09T11:28:15;100137.13;;;14.94;100.00
35331;BME280;21441;52.190;20.910;2022-09-09T11:30:54;100132.19;;;15.04;100.00
35331;BME280;21441;52.190;20.910;2022-09-09T11:36:59;100141.94;;;15.25;100.00
35331;BME280;21441;52.190;20.910;2022-09-09T11:39:44;100138.63;;;15.23;100.00
35331;BME280;21441;52.190;20.910;2022-09-09T11:42:18;100132.84;;;15.26;100.00
35331;BME280;21441;52.190;20.910;2022-09-09T11:44:45;100139.47;;;15.17;100.00
35331;BME280;21441;52.190;20.910;2022-09-09T11:47:19;100138.63;;;15.17;100.00
35331;BME280;21441;52.190;20.910;2022-09-09T11:49:47;100135.72;;;15.12;100.00
35331;BME280;21441;52.190;20.910;2022-09-09T11:52:35;100145.41;;;15.06;100.00
35331;BME280;21441;52.190;20.910;2022-09-09T11:55:09;100144.75;;;14.97;100.00
35331;BME280;21441;52.190;20.910;2022-09-09T11:57:38;100145.00;;;15.02;100.00
35331;BME280;21441;52.190;20.910;2022-09-09T12:00:06;100140.91;;;15.13;100.00
35331;BME280;21441;52.190;20.910;2022-09-09T12:02:33;100139.22;;;15.12;100.00
35331;BME280;21441;52.190;20.910;2022-09-09T12:05:05;100140.25;;;15.04;100.00
35331;BME280;21441;52.190;20.910;2022-09-09T12:07:38;100143.19;;;15.23;100.00
35331;BME280;21441;52.190;20.910;2022-09-09T12:10:21;100139.81;;;14.94;100.00
35331;BME280;21441;52.190;20.910;2022-09-09T12:12:49;100149.53;;;14.95;100.00
35331;BME280;21441;52.190;20.910;2022-09-09T12:15:29;100143.75;;;15.05;100.00
35331;BME280;21441;52.190;20.910;2022-09-09T12:17:58;100144.94;;;14.82;100.00
35331;BME280;21441;52.190;20.910;2022-09-09T12:20:33;100142.41;;;14.74;100.00
35331;BME280;21441;52.190;20.910;2022-09-09T12:23:18;100146.72;;;14.69;100.00
35331;BME280;21441;52.190;20.910;2022-09-09T12:25:54;100146.56;;;14.77;100.00
35331;BME280;21441;52.190;20.910;2022-09-09T12:28:27;100144.88;;;14.62;100.00
35331;BME280;21441;52.190;20.910;2022-09-09T12:31:04;100147.22;;;14.92;100.00
35331;BME280;21441;52.190;20.910;2022-09-09T12:33:34;100145.53;;;14.78;100.00
35331;BME280;21441;52.190;20.910;2022-09-09T12:36:03;100150.28;;;14.76;100.00
35331;BME280;21441;52.190;20.910;2022-09-09T12:38:35;100146.41;;;14.92;100.00
35331;BME280;21441;52.190;20.910;2022-09-09T12:41:03;100141.69;;;15.07;100.00
35331;BME280;21441;52.190;20.910;2022-09-09T12:43:30;100137.59;;;15.11;100.00
35331;BME280;21441;52.190;20.910;2022-09-09T12:46:00;100136.53;;;15.12;100.00
35331;BME280;21441;52.190;20.910;2022-09-09T12:48:34;100138.84;;;15.29;100.00
35331;BME280;21441;52.190;20.910;2022-09-09T12:51:03;100128.50;;;15.25;100.00
35331;BME280;21441;52.190;20.910;2022-09-09T12:53:34;100129.34;;;15.33;100.00
35331;BME280;21441;52.190;20.910;2022-09-09T12:56:05;100131.19;;;15.32;100.00
35331;BME280;21441;52.190;20.910;2022-09-09T12:58:34;100133.88;;;15.25;100.00
35331;BME280;21441;52.190;20.910;2022-09-09T13:01:03;100142.38;;;15.36;100.00